sensor_id;sensor_type;location;lat;lon;timestamp;pressure;altitude;pressure_sealevel;temperature;humidity
50226;BME280;36113;50.742;6.432;2022-11-04T00:01:32;147191.97;;;8.97;100.00
50226;BME280;36113;50.742;6.432;2022-11-04T00:03:58;147153.16;;;8.81;100.00
50226;BME280;36113;50.742;6.432;2022-11-04T00:06:23;147189.47;;;8.96;100.00
50226;BME280;36113;50.742;6.432;2022-11-04T00:08:50;147141.94;;;8.77;100.00
50226;BME280;36113;50.742;6.432;2022-11-04T00:11:16;147220.72;;;9.09;100.00
50226;BME280;36113;50.742;6.432;2022-11-04T00:14:00;147219.47;;;9.09;100.00
50226;BME280;36113;50.742;6.432;2022-11-04T00:16:26;147211.97;;;9.06;100.00
50226;BME280;36113;50.742;6.432;2022-11-04T00:19:10;147180.72;;;8.93;100.00
50226;BME280;36113;50.742;6.432;2022-11-04T00:21:35;147165.69;;;8.87;100.00
50226;BME280;36113;50.742;6.432;2022-11-04T00:24:19;147200.75;;;9.01;100.00
50226;BME280;36113;50.742;6.432;2022-11-04T00:27:03;147229.53;;;9.13;100.00
50226;BME280;36113;50.742;6.432;2022-11-04T00:29:47;147156.94;;;8.83;100.00
50226;BME280;36113;50.742;6.432;2022-11-04T00:32:12;147188.22;;;8.96;100.00
50226;BME280;36113;50.742;6.432;2022-11-04T00:34:56;147176.94;;;8.91;100.00
50226;BME280;36113;50.742;6.432;2022-11-04T00:37:21;147155.69;;;8.82;100.00
50226;BME280;36113;50.742;6.432;2022-11-04T00:39:47;147108.19;;;8.63;100.00
50226;BME280;36113;50.742;6.432;2022-11-04T00:42:12;147106.91;;;8.62;100.00
50226;BME280;36113;50.742;6.432;2022-11-04T00:44:37;147088.16;;;8.55;100.00
50226;BME280;36113;50.742;6.432;2022-11-04T00:47:03;147104.41;;;8.61;100.00
50226;BME280;36113;50.742;6.432;2022-11-04T00:49:28;147066.91;;;8.46;100.00
50226;BME280;36113;50.742;6.432;2022-11-04T00:51:53;147014.31;;;8.24;100.00
50226;BME280;36113;50.742;6.432;2022-11-04T00:54:19;147028.06;;;8.30;100.00
50226;BME280;36113;50.742;6.432;2022-11-04T00:56:44;147045.59;;;8.37;100.00
50226;BME280;36113;50.742;6.432;2022-11-04T00:59:10;147029.34;;;8.31;100.00
50226;BME280;36113;50.742;6.432;2022-11-04T01:01:35;147023.06;;;8.28;100.00
50226;BME280;36113;50.742;6.432;2022-11-04T01:04:00;147048.06;;;8.38;100.00
50226;BME280;36113;50.742;6.432;2022-11-04T01:06:26;147001.81;;;8.19;100.00
50226;BME280;36113;50.742;6.432;2022-11-04T01:08:56;146989.31;;;8.14;100.00
50226;BME280;36113;50.742;6.432;2022-11-04T01:11:22;146966.81;;;8.05;100.00
50226;BME280;36113;50.742;6.432;2022-11-04T01:13:50;146974.31;;;8.08;100.00
50226;BME280;36113;50.742;6.432;2022-11-04T01:16:16;146953.03;;;7.99;100.00
50226;BME280;36113;50.742;6.432;2022-11-04T01:18:42;146996.81;;;8.17;100.00
50226;BME280;36113;50.742;6.432;2022-11-04T01:21:10;147015.53;;;8.25;100.00
50226;BME280;36113;50.742;6.432;2022-11-04T01:23:36;146996.81;;;8.17;100.00
50226;BME280;36113;50.742;6.432;2022-11-04T01:26:07;146933.06;;;7.91;100.00
50226;BME280;36113;50.742;6.432;2022-11-04T01:28:32;146978.03;;;8.10;100.00
50226;BME280;36113;50.742;6.432;2022-11-04T01:30:58;146935.53;;;7.92;100.00
50226;BME280;36113;50.742;6.432;2022-11-04T01:33:23;146971.81;;;8.07;100.00
50226;BME280;36113;50.742;6.432;2022-11-04T01:35:49;146944.28;;;7.96;100.00
50226;BME280;36113;50.742;6.432;2022-11-04T01:38:15;146973.03;;;8.07;100.00
50226;BME280;36113;50.742;6.432;2022-11-04T01:40:41;146969.28;;;8.06;100.00
50226;BME280;36113;50.742;6.432;2022-11-04T01:43:18;146966.81;;;8.05;100.00
50226;BME280;36113;50.742;6.432;2022-11-04T01:45:47;146931.78;;;7.91;100.00
50226;BME280;36113;50.742;6.432;2022-11-04T01:48:19;146960.53;;;8.02;100.00
50226;BME280;36113;50.742;6.432;2022-11-04T01:50:47;146953.03;;;7.99;100.00
50226;BME280;36113;50.742;6.432;2022-11-04T01:53:18;146879.31;;;7.69;100.00
50226;BME280;36113;50.742;6.432;2022-11-04T01:55:51;146911.81;;;7.82;100.00
50226;BME280;36113;50.742;6.432;2022-11-04T01:58:20;146901.78;;;7.78;100.00
50226;BME280;36113;50.742;6.432;2022-11-04T02:00:47;146904.31;;;7.79;100.00
50226;BME280;36113;50.742;6.432;2022-11-04T02:03:22;146934.31;;;7.92;100.00
50226;BME280;36113;50.742;6.432;2022-11-04T02:05:49;146878.06;;;7.68;100.00
50226;BME280;36113;50.742;6.432;2022-11-04T02:08:16;146886.81;;;7.72;100.00
50226;BME280;36113;50.742;6.432;2022-11-04T02:10:51;146869.28;;;7.65;100.00
50226;BME280;36113;50.742;6.432;2022-11-04T02:13:18;146896.81;;;7.76;100.00
50226;BME280;36113;50.742;6.432;2022-11-04T02:18:47;146898.03;;;7.77;100.00
50226;BME280;36113;50.742;6.432;2022-11-04T02:21:34;146891.81;;;7.74;100.00
50226;BME280;36113;50.742;6.432;2022-11-04T02:43:34;146785.56;;;7.30;100.00
50226;BME280;36113;50.742;6.432;2022-11-04T02:46:24;146780.56;;;7.28;100.00
50226;BME280;36113;50.742;6.432;2022-11-04T02:49:04;146843.06;;;7.54;100.00
50226;BME280;36113;50.742;6.432;2022-11-04T02:51:37;146771.81;;;7.25;100.00
50226;BME280;36113;50.742;6.432;2022-11-04T02:54:11;146776.81;;;7.27;100.00
50226;BME280;36113;50.742;6.432;2022-11-04T02:56:42;146803.09;;;7.38;100.00
50226;BME280;36113;50.742;6.432;2022-11-04T02:59:14;146825.56;;;7.47;100.00
50226;BME280;36113;50.742;6.432;2022-11-04T03:01:42;146746.84;;;7.14;100.00
50226;BME280;36113;50.742;6.432;2022-11-04T03:04:13;146816.81;;;7.43;100.00
50226;BME280;36113;50.742;6.432;2022-11-04T03:06:41;146786.84;;;7.31;100.00
50226;BME280;36113;50.742;6.432;2022-11-04T03:09:09;146811.84;;;7.41;100.00
50226;BME280;36113;50.742;6.432;2022-11-04T03:11:37;146811.84;;;7.41;100.00
50226;BME280;36113;50.742;6.432;2022-11-04T03:14:14;146790.59;;;7.32;100.00
50226;BME280;36113;50.742;6.432;2022-11-04T03:16:46;146820.56;;;7.45;100.00
50226;BME280;36113;50.742;6.432;2022-11-04T03:21:44;146835.53;;;7.51;100.00
50226;BME280;36113;50.742;6.432;2022-11-04T03:24:12;146798.06;;;7.36;100.00
50226;BME280;36113;50.742;6.432;2022-11-04T03:26:44;146813.06;;;7.42;100.00
50226;BME280;36113;50.742;6.432;2022-11-04T03:29:33;146820.56;;;7.45;100.00
50226;BME280;36113;50.742;6.432;2022-11-04T03:34:27;146700.63;;;6.95;100.00
50226;BME280;36113;50.742;6.432;2022-11-04T03:36:54;146769.34;;;7.24;100.00
50226;BME280;36113;50.742;6.432;2022-11-04T03:39:19;146758.09;;;7.19;100.00
50226;BME280;36113;50.742;6.432;2022-11-04T03:41:56;146763.09;;;7.21;100.00
50226;BME280;36113;50.742;6.432;2022-11-04T03:44:23;146739.34;;;7.11;100.00
50226;BME280;36113;50.742;6.432;2022-11-04T03:46:50;146721.84;;;7.04;100.00
50226;BME280;36113;50.742;6.432;2022-11-04T03:49:17;146781.84;;;7.29;100.00
50226;BME280;36113;50.742;6.432;2022-11-04T03:51:42;146798.06;;;7.36;100.00
50226;BME280;36113;50.742;6.432;2022-11-04T03:54:08;146728.13;;;7.07;100.00
50226;BME280;36113;50.742;6.432;2022-11-04T03:59:48;146763.09;;;7.21;100.00
50226;BME280;36113;50.742;6.432;2022-11-04T04:02:30;146701.84;;;6.96;100.00
50226;BME280;36113;50.742;6.432;2022-11-04T04:05:02;146763.09;;;7.21;100.00
50226;BME280;36113;50.742;6.432;2022-11-04T04:07:40;146714.34;;;7.01;100.00
50226;BME280;36113;50.742;6.432;2022-11-04T04:10:18;146798.06;;;7.36;100.00
50226;BME280;36113;50.742;6.432;2022-11-04T04:16:05;146743.09;;;7.13;100.00
50226;BME280;36113;50.742;6.432;2022-11-04T04:18:39;146781.84;;;7.29;100.00
50226;BME280;36113;50.742;6.432;2022-11-04T04:21:08;146766.84;;;7.23;100.00
50226;BME280;36113;50.742;6.432;2022-11-04T04:23:37;146773.06;;;7.25;100.00
50226;BME280;36113;50.742;6.432;2022-11-04T04:26:23;146768.06;;;7.23;100.00
50226;BME280;36113;50.742;6.432;2022-11-04T04:29:08;146710.66;;;7.00;100.00
50226;BME280;36113;50.742;6.432;2022-11-04T04:31:36;146730.59;;;7.08;100.00
50226;BME280;36113;50.742;6.432;2022-11-04T04:34:22;146770.59;;;7.24;100.00
50226;BME280;36113;50.742;6.432;2022-11-04T04:36:55;146784.31;;;7.30;100.00
50226;BME280;36113;50.742;6.432;2022-11-04T04:39:24;146780.56;;;7.28;100.00
50226;BME280;36113;50.742;6.432;2022-11-04T04:42:10;146728.13;;;7.07;100.00
50226;BME280;36113;50.742;6.432;2022-11-04T04:44:55;146751.81;;;7.17;100.00
50226;BME280;36113;50.742;6.432;2022-11-04T04:50:00;146751.81;;;7.17;100.00
50226;BME280;36113;50.742;6.432;2022-11-04T04:52:31;146791.81;;;7.33;100.00
50226;BME280;36113;50.742;6.432;2022-11-04T04:54:57;146744.38;;;7.13;100.00
50226;BME280;36113;50.742;6.432;2022-11-04T04:57:23;146806.84;;;7.39;100.00
50226;BME280;36113;50.742;6.432;2022-11-04T04:59:48;146814.31;;;7.42;100.00
50226;BME280;36113;50.742;6.432;2022-11-04T05:02:14;146800.56;;;7.37;100.00
50226;BME280;36113;50.742;6.432;2022-11-04T05:04:39;146794.34;;;7.34;100.00
50226;BME280;36113;50.742;6.432;2022-11-04T05:07:04;146794.34;;;7.34;100.00
50226;BME280;36113;50.742;6.432;2022-11-04T05:09:31;146779.34;;;7.28;100.00
50226;BME280;36113;50.742;6.432;2022-11-04T05:11:57;146779.34;;;7.28;100.00
50226;BME280;36113;50.742;6.432;2022-11-04T05:14:22;146816.81;;;7.43;100.00
50226;BME280;36113;50.742;6.432;2022-11-04T05:16:47;146790.59;;;7.32;100.00
50226;BME280;36113;50.742;6.432;2022-11-04T05:19:13;146846.81;;;7.56;100.00
50226;BME280;36113;50.742;6.432;2022-11-04T05:21:38;146809.31;;;7.40;100.00
50226;BME280;36113;50.742;6.432;2022-11-04T05:24:04;146813.06;;;7.42;100.00
50226;BME280;36113;50.742;6.432;2022-11-04T05:26:29;146841.81;;;7.54;100.00
50226;BME280;36113;50.742;6.432;2022-11-04T05:28:54;146851.78;;;7.58;100.00
50226;BME280;36113;50.742;6.432;2022-11-04T05:31:19;146844.28;;;7.55;100.00
50226;BME280;36113;50.742;6.432;2022-11-04T05:33:45;146841.81;;;7.54;100.00
50226;BME280;36113;50.742;6.432;2022-11-04T05:36:12;146829.31;;;7.48;100.00
50226;BME280;36113;50.742;6.432;2022-11-04T05:38:38;146840.59;;;7.53;100.00
50226;BME280;36113;50.742;6.432;2022-11-04T05:41:05;146855.56;;;7.59;100.00
50226;BME280;36113;50.742;6.432;2022-11-04T05:43:31;146801.81;;;7.37;100.00
50226;BME280;36113;50.742;6.432;2022-11-04T05:45:59;146851.78;;;7.58;100.00
50226;BME280;36113;50.742;6.432;2022-11-04T05:48:25;146859.31;;;7.61;100.00
50226;BME280;36113;50.742;6.432;2022-11-04T05:50:51;146785.56;;;7.30;100.00
50226;BME280;36113;50.742;6.432;2022-11-04T05:53:16;146843.06;;;7.54;100.00
50226;BME280;36113;50.742;6.432;2022-11-04T05:55:42;146819.34;;;7.44;100.00
50226;BME280;36113;50.742;6.432;2022-11-04T05:58:08;146845.56;;;7.55;100.00
50226;BME280;36113;50.742;6.432;2022-11-04T06:00:33;146768.06;;;7.23;100.00
50226;BME280;36113;50.742;6.432;2022-11-04T06:02:58;146834.31;;;7.50;100.00
50226;BME280;36113;50.742;6.432;2022-11-04T06:05:24;146834.31;;;7.50;100.00
50226;BME280;36113;50.742;6.432;2022-11-04T06:07:51;146814.31;;;7.42;100.00
50226;BME280;36113;50.742;6.432;2022-11-04T06:10:16;146780.56;;;7.28;100.00
50226;BME280;36113;50.742;6.432;2022-11-04T06:12:41;146788.06;;;7.31;100.00
50226;BME280;36113;50.742;6.432;2022-11-04T06:15:07;146811.84;;;7.41;100.00
50226;BME280;36113;50.742;6.432;2022-11-04T06:17:33;146810.56;;;7.41;100.00
50226;BME280;36113;50.742;6.432;2022-11-04T06:19:58;146853.06;;;7.58;100.00
50226;BME280;36113;50.742;6.432;2022-11-04T06:22:23;146786.84;;;7.31;100.00
50226;BME280;36113;50.742;6.432;2022-11-04T06:24:49;146816.81;;;7.43;100.00
50226;BME280;36113;50.742;6.432;2022-11-04T06:27:14;146749.34;;;7.16;100.00
50226;BME280;36113;50.742;6.432;2022-11-04T06:29:40;146843.06;;;7.54;100.00
50226;BME280;36113;50.742;6.432;2022-11-04T06:32:11;146831.78;;;7.49;100.00
50226;BME280;36113;50.742;6.432;2022-11-04T06:34:37;146821.81;;;7.45;100.00
50226;BME280;36113;50.742;6.432;2022-11-04T06:37:03;146863.06;;;7.62;100.00
50226;BME280;36113;50.742;6.432;2022-11-04T06:39:29;146844.28;;;7.55;100.00
50226;BME280;36113;50.742;6.432;2022-11-04T06:41:54;146861.81;;;7.62;100.00
50226;BME280;36113;50.742;6.432;2022-11-04T06:44:19;146858.06;;;7.60;100.00
50226;BME280;36113;50.742;6.432;2022-11-04T06:46:45;146844.28;;;7.55;100.00
50226;BME280;36113;50.742;6.432;2022-11-04T06:49:12;146859.31;;;7.61;100.00
50226;BME280;36113;50.742;6.432;2022-11-04T06:51:37;146859.31;;;7.61;100.00
50226;BME280;36113;50.742;6.432;2022-11-04T06:54:03;146818.06;;;7.44;100.00
50226;BME280;36113;50.742;6.432;2022-11-04T06:56:28;146843.06;;;7.54;100.00
50226;BME280;36113;50.742;6.432;2022-11-04T06:58:54;146851.78;;;7.58;100.00
50226;BME280;36113;50.742;6.432;2022-11-04T07:01:22;146834.31;;;7.50;100.00
50226;BME280;36113;50.742;6.432;2022-11-04T07:03:52;146794.34;;;7.34;100.00
50226;BME280;36113;50.742;6.432;2022-11-04T07:06:18;146849.31;;;7.57;100.00
50226;BME280;36113;50.742;6.432;2022-11-04T07:08:45;146820.56;;;7.45;100.00
50226;BME280;36113;50.742;6.432;2022-11-04T07:11:10;146861.81;;;7.62;100.00
50226;BME280;36113;50.742;6.432;2022-11-04T07:13:36;146856.78;;;7.60;100.00
50226;BME280;36113;50.742;6.432;2022-11-04T07:16:05;146879.31;;;7.69;100.00
50226;BME280;36113;50.742;6.432;2022-11-04T07:18:30;146879.31;;;7.69;100.00
50226;BME280;36113;50.742;6.432;2022-11-04T07:20:56;146863.06;;;7.62;100.00
50226;BME280;36113;50.742;6.432;2022-11-04T07:23:21;146863.06;;;7.62;100.00
50226;BME280;36113;50.742;6.432;2022-11-04T07:25:47;146883.06;;;7.70;100.00
50226;BME280;36113;50.742;6.432;2022-11-04T07:28:12;146878.06;;;7.68;100.00
50226;BME280;36113;50.742;6.432;2022-11-04T07:30:37;146841.81;;;7.54;100.00
50226;BME280;36113;50.742;6.432;2022-11-04T07:33:03;146889.28;;;7.73;100.00
50226;BME280;36113;50.742;6.432;2022-11-04T07:35:28;146868.03;;;7.64;100.00
50226;BME280;36113;50.742;6.432;2022-11-04T07:37:54;146916.81;;;7.84;100.00
50226;BME280;36113;50.742;6.432;2022-11-04T07:40:19;146899.31;;;7.77;100.00
50226;BME280;36113;50.742;6.432;2022-11-04T07:42:45;146928.06;;;7.89;100.00
50226;BME280;36113;50.742;6.432;2022-11-04T07:45:10;146921.81;;;7.86;100.00
50226;BME280;36113;50.742;6.432;2022-11-04T07:47:35;146880.53;;;7.69;100.00
50226;BME280;36113;50.742;6.432;2022-11-04T07:50:01;146869.28;;;7.65;100.00
50226;BME280;36113;50.742;6.432;2022-11-04T07:52:26;146836.81;;;7.51;100.00
50226;BME280;36113;50.742;6.432;2022-11-04T07:54:51;146889.28;;;7.73;100.00
50226;BME280;36113;50.742;6.432;2022-11-04T07:57:17;146841.81;;;7.54;100.00
50226;BME280;36113;50.742;6.432;2022-11-04T07:59:42;146811.84;;;7.41;100.00
50226;BME280;36113;50.742;6.432;2022-11-04T08:02:09;146880.53;;;7.69;100.00
50226;BME280;36113;50.742;6.432;2022-11-04T08:04:34;146913.06;;;7.83;100.00
50226;BME280;36113;50.742;6.432;2022-11-04T08:07:00;146921.81;;;7.86;100.00
50226;BME280;36113;50.742;6.432;2022-11-04T08:09:25;146926.78;;;7.88;100.00
50226;BME280;36113;50.742;6.432;2022-11-04T08:11:50;146945.56;;;7.96;100.00
50226;BME280;36113;50.742;6.432;2022-11-04T08:14:16;146965.53;;;8.04;100.00
50226;BME280;36113;50.742;6.432;2022-11-04T08:16:41;146966.81;;;8.05;100.00
50226;BME280;36113;50.742;6.432;2022-11-04T08:19:06;146961.81;;;8.03;100.00
50226;BME280;36113;50.742;6.432;2022-11-04T08:21:32;146994.28;;;8.16;100.00
50226;BME280;36113;50.742;6.432;2022-11-04T08:23:58;147011.84;;;8.23;100.00
50226;BME280;36113;50.742;6.432;2022-11-04T08:26:23;147024.34;;;8.29;100.00
50226;BME280;36113;50.742;6.432;2022-11-04T08:28:49;147041.84;;;8.36;100.00
50226;BME280;36113;50.742;6.432;2022-11-04T08:31:23;147074.38;;;8.49;100.00
50226;BME280;36113;50.742;6.432;2022-11-04T08:33:50;147069.38;;;8.47;100.00
50226;BME280;36113;50.742;6.432;2022-11-04T08:36:19;147075.66;;;8.50;100.00
50226;BME280;36113;50.742;6.432;2022-11-04T08:38:46;147081.88;;;8.52;100.00
50226;BME280;36113;50.742;6.432;2022-11-04T08:41:12;147013.06;;;8.24;100.00
50226;BME280;36113;50.742;6.432;2022-11-04T08:43:38;147119.41;;;8.68;100.00
50226;BME280;36113;50.742;6.432;2022-11-04T08:46:05;147121.91;;;8.69;100.00
50226;BME280;36113;50.742;6.432;2022-11-04T08:48:36;147096.91;;;8.58;100.00
50226;BME280;36113;50.742;6.432;2022-11-04T08:51:03;147148.16;;;8.79;100.00
50226;BME280;36113;50.742;6.432;2022-11-04T08:53:28;147100.66;;;8.60;100.00
50226;BME280;36113;50.742;6.432;2022-11-04T08:55:54;147141.94;;;8.77;100.00
50226;BME280;36113;50.742;6.432;2022-11-04T08:58:20;147149.41;;;8.80;100.00
50226;BME280;36113;50.742;6.432;2022-11-04T09:00:47;147159.44;;;8.84;100.00
50226;BME280;36113;50.742;6.432;2022-11-04T09:03:14;147140.66;;;8.76;100.00
50226;BME280;36113;50.742;6.432;2022-11-04T09:05:40;147093.16;;;8.57;100.00
50226;BME280;36113;50.742;6.432;2022-11-04T09:08:14;147141.94;;;8.77;100.00
50226;BME280;36113;50.742;6.432;2022-11-04T09:10:41;147130.66;;;8.72;100.00
50226;BME280;36113;50.742;6.432;2022-11-04T09:13:07;147155.69;;;8.82;100.00
50226;BME280;36113;50.742;6.432;2022-11-04T09:15:34;147125.69;;;8.70;100.00
50226;BME280;36113;50.742;6.432;2022-11-04T09:18:00;147123.16;;;8.69;100.00
50226;BME280;36113;50.742;6.432;2022-11-04T09:20:26;147165.69;;;8.87;100.00
50226;BME280;36113;50.742;6.432;2022-11-04T09:22:51;147193.22;;;8.98;100.00
50226;BME280;36113;50.742;6.432;2022-11-04T09:25:18;147209.50;;;9.05;100.00
50226;BME280;36113;50.742;6.432;2022-11-04T09:27:43;147209.50;;;9.05;100.00
50226;BME280;36113;50.742;6.432;2022-11-04T09:30:09;147262.00;;;9.26;100.00
50226;BME280;36113;50.742;6.432;2022-11-04T09:32:35;147259.53;;;9.25;100.00
50226;BME280;36113;50.742;6.432;2022-11-04T09:35:00;147259.53;;;9.25;100.00
50226;BME280;36113;50.742;6.432;2022-11-04T09:37:26;147294.56;;;9.39;100.00
50226;BME280;36113;50.742;6.432;2022-11-04T09:39:51;147349.63;;;9.62;100.00
50226;BME280;36113;50.742;6.432;2022-11-04T09:45:12;147438.50;;;9.99;100.00
50226;BME280;36113;50.742;6.432;2022-11-04T09:47:41;147502.38;;;10.25;100.00
50226;BME280;36113;50.742;6.432;2022-11-04T09:50:15;147550.00;;;10.44;100.00
50226;BME280;36113;50.742;6.432;2022-11-04T09:52:47;147627.69;;;10.76;100.00
50226;BME280;36113;50.742;6.432;2022-11-04T09:55:26;147672.75;;;10.95;100.00
50226;BME280;36113;50.742;6.432;2022-11-04T09:57:56;147655.22;;;10.87;100.00
50226;BME280;36113;50.742;6.432;2022-11-04T10:00:25;147647.69;;;10.84;100.00
50226;BME280;36113;50.742;6.432;2022-11-04T10:05:45;147628.94;;;10.77;100.00
50226;BME280;36113;50.742;6.432;2022-11-04T10:25:00;147417.22;;;9.90;100.00
50226;BME280;36113;50.742;6.432;2022-11-04T10:27:32;147373.41;;;9.72;100.00
50226;BME280;36113;50.742;6.432;2022-11-04T10:30:01;147325.88;;;9.52;100.00
50226;BME280;36113;50.742;6.432;2022-11-04T10:32:32;147320.84;;;9.50;100.00
50226;BME280;36113;50.742;6.432;2022-11-04T10:35:23;147334.63;;;9.56;100.00
50226;BME280;36113;50.742;6.432;2022-11-04T10:37:52;147304.56;;;9.44;100.00
50226;BME280;36113;50.742;6.432;2022-11-04T10:40:32;147285.81;;;9.36;100.00
50226;BME280;36113;50.742;6.432;2022-11-04T10:43:07;147287.03;;;9.36;100.00
50226;BME280;36113;50.742;6.432;2022-11-04T10:45:42;147338.41;;;9.57;100.00
50226;BME280;36113;50.742;6.432;2022-11-04T10:48:21;147325.88;;;9.52;100.00
50226;BME280;36113;50.742;6.432;2022-11-04T10:50:57;147327.13;;;9.53;100.00
50226;BME280;36113;50.742;6.432;2022-11-04T10:53:25;147298.31;;;9.41;100.00
50226;BME280;36113;50.742;6.432;2022-11-04T10:56:10;147314.59;;;9.48;100.00
50226;BME280;36113;50.742;6.432;2022-11-04T10:58:44;147304.56;;;9.44;100.00
50226;BME280;36113;50.742;6.432;2022-11-04T11:01:33;147313.34;;;9.47;100.00
50226;BME280;36113;50.742;6.432;2022-11-04T11:03:59;147320.84;;;9.50;100.00
50226;BME280;36113;50.742;6.432;2022-11-04T11:06:33;147337.09;;;9.57;100.00
50226;BME280;36113;50.742;6.432;2022-11-04T11:09:11;147333.34;;;9.55;100.00
50226;BME280;36113;50.742;6.432;2022-11-04T11:11:50;147339.63;;;9.58;100.00
50226;BME280;36113;50.742;6.432;2022-11-04T11:14:18;147303.31;;;9.43;100.00
50226;BME280;36113;50.742;6.432;2022-11-04T11:16:44;147342.09;;;9.59;100.00
50226;BME280;36113;50.742;6.432;2022-11-04T11:21:49;147385.94;;;9.77;100.00
50226;BME280;36113;50.742;6.432;2022-11-04T11:24:19;147394.69;;;9.81;100.00
50226;BME280;36113;50.742;6.432;2022-11-04T11:26:46;147466.06;;;10.10;100.00
50226;BME280;36113;50.742;6.432;2022-11-04T11:29:25;147399.69;;;9.83;100.00
50226;BME280;36113;50.742;6.432;2022-11-04T11:31:53;147459.81;;;10.07;100.00
50226;BME280;36113;50.742;6.432;2022-11-04T11:34:35;147486.09;;;10.18;100.00
50226;BME280;36113;50.742;6.432;2022-11-04T11:37:02;147431.03;;;9.95;100.00
50226;BME280;36113;50.742;6.432;2022-11-04T11:39:31;147434.78;;;9.97;100.00
50226;BME280;36113;50.742;6.432;2022-11-04T11:42:03;147442.25;;;10.00;100.00
50226;BME280;36113;50.742;6.432;2022-11-04T11:44:36;147399.69;;;9.83;100.00
50226;BME280;36113;50.742;6.432;2022-11-04T11:50:06;147443.53;;;10.01;100.00
50226;BME280;36113;50.742;6.432;2022-11-04T11:52:39;147472.28;;;10.12;100.00
50226;BME280;36113;50.742;6.432;2022-11-04T11:55:23;147433.50;;;9.97;100.00
50226;BME280;36113;50.742;6.432;2022-11-04T12:00:36;147385.94;;;9.77;100.00
50226;BME280;36113;50.742;6.432;2022-11-04T12:03:24;147444.78;;;10.01;100.00
50226;BME280;36113;50.742;6.432;2022-11-04T12:06:24;147436.00;;;9.98;100.00
50226;BME280;36113;50.742;6.432;2022-11-04T12:17:00;147452.31;;;10.04;100.00
50226;BME280;36113;50.742;6.432;2022-11-04T12:19:42;147408.47;;;9.86;100.00
50226;BME280;36113;50.742;6.432;2022-11-04T12:27:44;147461.06;;;10.08;100.00
50226;BME280;36113;50.742;6.432;2022-11-04T12:30:16;147420.97;;;9.91;100.00
50226;BME280;36113;50.742;6.432;2022-11-04T12:38:45;147462.28;;;10.08;100.00
50226;BME280;36113;50.742;6.432;2022-11-04T12:41:30;147503.63;;;10.25;100.00
50226;BME280;36113;50.742;6.432;2022-11-04T12:44:18;147493.63;;;10.21;100.00
50226;BME280;36113;50.742;6.432;2022-11-04T12:49:42;147503.63;;;10.25;100.00
50226;BME280;36113;50.742;6.432;2022-11-04T13:01:12;147456.06;;;10.06;100.00
50226;BME280;36113;50.742;6.432;2022-11-04T13:03:44;147456.06;;;10.06;100.00
50226;BME280;36113;50.742;6.432;2022-11-04T13:06:17;147452.31;;;10.04;100.00
50226;BME280;36113;50.742;6.432;2022-11-04T13:09:03;147436.00;;;9.98;100.00
50226;BME280;36113;50.742;6.432;2022-11-04T13:14:14;147429.72;;;9.95;100.00
50226;BME280;36113;50.742;6.432;2022-11-04T13:16:43;147399.69;;;9.83;100.00
50226;BME280;36113;50.742;6.432;2022-11-04T13:19:22;147384.69;;;9.76;100.00
50226;BME280;36113;50.742;6.432;2022-11-04T13:21:48;147357.16;;;9.65;100.00
50226;BME280;36113;50.742;6.432;2022-11-04T13:24:22;147353.38;;;9.64;100.00
50226;BME280;36113;50.742;6.432;2022-11-04T13:26:54;147330.88;;;9.54;100.00
50226;BME280;36113;50.742;6.432;2022-11-04T13:29:22;147339.63;;;9.58;100.00
50226;BME280;36113;50.742;6.432;2022-11-04T13:40:02;147323.34;;;9.51;100.00
50226;BME280;36113;50.742;6.432;2022-11-04T13:45:16;147297.09;;;9.41;100.00
50226;BME280;36113;50.742;6.432;2022-11-04T13:47:56;147279.53;;;9.33;100.00
50226;BME280;36113;50.742;6.432;2022-11-04T13:50:40;147254.50;;;9.23;100.00
50226;BME280;36113;50.742;6.432;2022-11-04T13:53:08;147280.81;;;9.34;100.00
50226;BME280;36113;50.742;6.432;2022-11-04T13:55:35;147267.00;;;9.28;100.00
50226;BME280;36113;50.742;6.432;2022-11-04T13:58:19;147273.28;;;9.31;100.00
50226;BME280;36113;50.742;6.432;2022-11-04T14:06:52;147248.25;;;9.20;100.00
50226;BME280;36113;50.742;6.432;2022-11-04T14:14:46;147252.03;;;9.22;100.00
50226;BME280;36113;50.742;6.432;2022-11-04T14:20:27;147211.97;;;9.06;100.00
50226;BME280;36113;50.742;6.432;2022-11-04T14:23:04;147228.22;;;9.12;100.00
50226;BME280;36113;50.742;6.432;2022-11-04T14:30:36;147273.28;;;9.31;100.00
50226;BME280;36113;50.742;6.432;2022-11-04T14:33:16;147264.53;;;9.27;100.00
50226;BME280;36113;50.742;6.432;2022-11-04T14:35:43;147267.00;;;9.28;100.00
50226;BME280;36113;50.742;6.432;2022-11-04T14:38:23;147260.78;;;9.26;100.00
50226;BME280;36113;50.742;6.432;2022-11-04T14:41:10;147238.28;;;9.16;100.00
50226;BME280;36113;50.742;6.432;2022-11-04T14:43:35;147209.50;;;9.05;100.00
50226;BME280;36113;50.742;6.432;2022-11-04T14:46:04;147211.97;;;9.06;100.00
50226;BME280;36113;50.742;6.432;2022-11-04T14:48:29;147184.47;;;8.94;100.00
50226;BME280;36113;50.742;6.432;2022-11-04T14:50:56;147259.53;;;9.25;100.00
50226;BME280;36113;50.742;6.432;2022-11-04T14:53:31;147263.31;;;9.27;100.00
50226;BME280;36113;50.742;6.432;2022-11-04T14:56:26;147252.03;;;9.22;100.00
50226;BME280;36113;50.742;6.432;2022-11-04T14:59:00;147250.78;;;9.22;100.00
50226;BME280;36113;50.742;6.432;2022-11-04T15:01:28;147258.25;;;9.25;100.00
50226;BME280;36113;50.742;6.432;2022-11-04T15:04:02;147268.28;;;9.29;100.00
50226;BME280;36113;50.742;6.432;2022-11-04T15:06:29;147245.75;;;9.19;100.00
50226;BME280;36113;50.742;6.432;2022-11-04T15:08:55;147268.28;;;9.29;100.00
50226;BME280;36113;50.742;6.432;2022-11-04T15:11:28;147282.03;;;9.34;100.00
50226;BME280;36113;50.742;6.432;2022-11-04T15:14:23;147274.53;;;9.31;100.00
50226;BME280;36113;50.742;6.432;2022-11-04T15:16:52;147247.03;;;9.20;100.00